PWSweather.com
Personal Weather Stations
Station Observations
BZA01
Southern Palatinate, Bad BergzabernDE 76887

Southern PalatinateBad BergzabernDE 76887

Lat: 49.096, Lon: 8

Elevation: 640

Station Type: Davis VP2+

Latest ConditionsUpdated 3:37:03 PM GMT+01:01 Friday, Nov 24, 2017
Currently Today's Max Today's Min Today's Average
Temperature 55.2°F12.9°C 57.9°F14.4°C 49.3°F9.6°C 53.7°F12.1°C
Dew Point 50.2°F10.1°C 50.2°F10.1°C 43.5°F6.4°C 46.1°F7.8°C
Winds 6.9 mph SW11.1 kmh SW 8.9 mph SW14.3 kmh SW - 5.2 mph 8.4 kmh
Wind Gusts 6.0 mph9.7 kmh 13.0 mph20.9 kmh - -
Humidity 83% 83% 67% 75%
Pressure 29.88 in1011.9 mb 29.91 in1012.9 mb 29.84 in1010.5 mb -
Precipitation - 0.01 in0.3 mm - -
Hour Temp Dew Point Humidity Winds Wind Gusts Pressure Precip Precip Rate Daily Precip Total
03:37 PM 55.2°F12.9°C 50.2°F10.1°C 83% 6.9 mph SW11.1 kmh SW 6.0 mph9.7 kmh 29.88 in1011.9 mb - 0.00 in0.0 mm 0.01 in0.3 mm
03:32 PM 55.2°F12.9°C 50.2°F10.1°C 83% 8.1 mph SW13.0 kmh SW 6.0 mph9.7 kmh 29.88 in1011.9 mb - 0.00 in0.0 mm 0.01 in0.3 mm
03:27 PM 55.0°F12.8°C 50.0°F10.0°C 83% 6.9 mph WNW11.1 kmh WNW 10.1 mph16.3 kmh 29.88 in1011.9 mb - 0.00 in0.0 mm 0.01 in0.3 mm
03:22 PM 55.0°F12.8°C 50.0°F10.0°C 83% 6.0 mph WSW9.7 kmh WSW 6.9 mph11.1 kmh 29.88 in1011.9 mb - 0.00 in0.0 mm 0.01 in0.3 mm
03:17 PM 55.2°F12.9°C 50.2°F10.1°C 83% 6.9 mph WNW11.1 kmh WNW 4.0 mph6.4 kmh 29.88 in1011.9 mb - 0.00 in0.0 mm 0.01 in0.3 mm
03:12 PM 55.4°F13.0°C 50.0°F10.0°C 82% 6.0 mph W9.7 kmh W 8.1 mph13.0 kmh 29.87 in1011.5 mb - 0.00 in0.0 mm 0.01 in0.3 mm
03:07 PM 55.6°F13.1°C 50.2°F10.1°C 82% 6.0 mph WSW9.7 kmh WSW 4.0 mph6.4 kmh 29.86 in1011.2 mb - 0.00 in0.0 mm 0.01 in0.3 mm
03:02 PM 55.8°F13.2°C 50.0°F10.0°C 81% 6.0 mph W9.7 kmh W 4.0 mph6.4 kmh 29.87 in1011.5 mb - 0.00 in0.0 mm 0.01 in0.3 mm
02:57 PM 55.9°F13.3°C 50.2°F10.1°C 81% 6.0 mph W9.7 kmh W 8.9 mph14.3 kmh 29.88 in1011.9 mb - 0.00 in0.0 mm 0.01 in0.3 mm
02:52 PM 55.9°F13.3°C 49.8°F9.9°C 80% 6.0 mph W9.7 kmh W 6.9 mph11.1 kmh 29.87 in1011.5 mb - 0.00 in0.0 mm 0.01 in0.3 mm
02:47 PM 55.9°F13.3°C 49.8°F9.9°C 80% 6.0 mph WNW9.7 kmh WNW 8.1 mph13.0 kmh 29.88 in1011.9 mb - 0.00 in0.0 mm 0.01 in0.3 mm
02:42 PM 56.1°F13.4°C 50.0°F10.0°C 80% 6.0 mph WSW9.7 kmh WSW 6.0 mph9.7 kmh 29.87 in1011.5 mb - 0.00 in0.0 mm 0.01 in0.3 mm
02:37 PM 56.1°F13.4°C 50.0°F10.0°C 80% 6.9 mph W11.1 kmh W 8.1 mph13.0 kmh 29.87 in1011.5 mb - 0.00 in0.0 mm 0.01 in0.3 mm
02:32 PM 56.1°F13.4°C 50.0°F10.0°C 80% 6.0 mph WNW9.7 kmh WNW 8.1 mph13.0 kmh 29.87 in1011.5 mb - 0.00 in0.0 mm 0.01 in0.3 mm
02:27 PM 55.9°F13.3°C 49.8°F9.9°C 80% 4.9 mph WSW7.9 kmh WSW 4.9 mph7.9 kmh 29.88 in1011.9 mb - 0.00 in0.0 mm 0.01 in0.3 mm
02:22 PM 55.9°F13.3°C 49.8°F9.9°C 80% 6.0 mph W9.7 kmh W 6.0 mph9.7 kmh 29.88 in1011.9 mb - 0.00 in0.0 mm 0.01 in0.3 mm
02:17 PM 55.9°F13.3°C 49.5°F9.7°C 79% 6.0 mph W9.7 kmh W 4.0 mph6.4 kmh 29.88 in1011.9 mb - 0.00 in0.0 mm 0.01 in0.3 mm
02:12 PM 56.1°F13.4°C 50.0°F10.0°C 80% 6.0 mph WNW9.7 kmh WNW 6.9 mph11.1 kmh 29.88 in1011.9 mb - 0.00 in0.0 mm 0.01 in0.3 mm
02:07 PM 56.1°F13.4°C 49.6°F9.8°C 79% 6.0 mph WSW9.7 kmh WSW 2.9 mph4.7 kmh 29.87 in1011.5 mb - 0.00 in0.0 mm 0.01 in0.3 mm
02:02 PM 56.1°F13.4°C 49.6°F9.8°C 79% 4.9 mph W7.9 kmh W 6.9 mph11.1 kmh 29.87 in1011.5 mb - 0.00 in0.0 mm 0.01 in0.3 mm
01:57 PM 56.1°F13.4°C 49.6°F9.8°C 79% 6.0 mph W9.7 kmh W 4.0 mph6.4 kmh 29.88 in1011.9 mb - 0.00 in0.0 mm 0.01 in0.3 mm
01:52 PM 56.1°F13.4°C 49.6°F9.8°C 79% 6.9 mph WNW11.1 kmh WNW 4.9 mph7.9 kmh 29.87 in1011.5 mb - 0.00 in0.0 mm 0.01 in0.3 mm
01:47 PM 56.1°F13.4°C 49.6°F9.8°C 79% 6.9 mph W11.1 kmh W 6.9 mph11.1 kmh 29.87 in1011.5 mb - 0.00 in0.0 mm 0.01 in0.3 mm
01:42 PM 56.1°F13.4°C 50.0°F10.0°C 80% 8.1 mph SW13.0 kmh SW 6.0 mph9.7 kmh 29.88 in1011.9 mb - 0.00 in0.0 mm 0.01 in0.3 mm
01:37 PM 56.7°F13.7°C 50.2°F10.1°C 79% 8.1 mph SW13.0 kmh SW 10.1 mph16.3 kmh 29.88 in1011.9 mb - 0.00 in0.0 mm 0.01 in0.3 mm
01:32 PM 56.8°F13.8°C 49.6°F9.8°C 77% 8.9 mph W14.3 kmh W 8.1 mph13.0 kmh 29.88 in1011.9 mb - 0.00 in0.0 mm 0.01 in0.3 mm
01:27 PM 56.8°F13.8°C 49.6°F9.8°C 77% 8.9 mph WSW14.3 kmh WSW 8.1 mph13.0 kmh 29.88 in1011.9 mb - 0.00 in0.0 mm 0.01 in0.3 mm
01:22 PM 56.8°F13.8°C 49.6°F9.8°C 77% 8.1 mph W13.0 kmh W 8.9 mph14.3 kmh 29.88 in1011.9 mb - 0.00 in0.0 mm 0.01 in0.3 mm
01:17 PM 56.7°F13.7°C 49.5°F9.7°C 77% 8.1 mph WSW13.0 kmh WSW 4.9 mph7.9 kmh 29.88 in1011.9 mb - 0.00 in0.0 mm 0.01 in0.3 mm
01:12 PM 56.8°F13.8°C 49.6°F9.8°C 77% 8.1 mph WSW13.0 kmh WSW 6.0 mph9.7 kmh 29.88 in1011.9 mb - 0.00 in0.0 mm 0.01 in0.3 mm
01:07 PM 56.7°F13.7°C 49.5°F9.7°C 77% 8.9 mph WSW14.3 kmh WSW 6.0 mph9.7 kmh 29.88 in1011.9 mb - 0.00 in0.0 mm 0.01 in0.3 mm
01:02 PM 56.7°F13.7°C 49.5°F9.7°C 77% 8.1 mph W13.0 kmh W 8.9 mph14.3 kmh 29.88 in1011.9 mb - 0.00 in0.0 mm 0.01 in0.3 mm
12:57 PM 56.5°F13.6°C 49.6°F9.8°C 78% 8.1 mph W13.0 kmh W 13.0 mph20.9 kmh 29.87 in1011.5 mb - 0.00 in0.0 mm 0.01 in0.3 mm
12:52 PM 56.1°F13.4°C 48.9°F9.4°C 77% 6.9 mph WNW11.1 kmh WNW 8.9 mph14.3 kmh 29.87 in1011.5 mb - 0.00 in0.0 mm 0.01 in0.3 mm
12:47 PM 56.1°F13.4°C 49.3°F9.6°C 78% 8.1 mph W13.0 kmh W 6.0 mph9.7 kmh 29.87 in1011.5 mb - 0.00 in0.0 mm 0.01 in0.3 mm
12:42 PM 56.5°F13.6°C 49.3°F9.6°C 77% 8.1 mph W13.0 kmh W 8.9 mph14.3 kmh 29.87 in1011.5 mb - 0.00 in0.0 mm 0.01 in0.3 mm
12:37 PM 57.0°F13.9°C 49.5°F9.7°C 76% 6.9 mph W11.1 kmh W 13.0 mph20.9 kmh 29.86 in1011.2 mb - 0.00 in0.0 mm 0.00 in0.0 mm
12:32 PM 57.4°F14.1°C 48.4°F9.1°C 72% 8.1 mph WSW13.0 kmh WSW 6.9 mph11.1 kmh 29.87 in1011.5 mb - 0.00 in0.0 mm 0.00 in0.0 mm
12:27 PM 57.2°F14.0°C 48.2°F9.0°C 72% 6.9 mph W11.1 kmh W 2.9 mph4.7 kmh 29.87 in1011.5 mb - 0.00 in0.0 mm 0.00 in0.0 mm
12:22 PM 57.0°F13.9°C 48.0°F8.9°C 72% 6.0 mph WSW9.7 kmh WSW 6.0 mph9.7 kmh 29.86 in1011.2 mb - 0.00 in0.0 mm 0.00 in0.0 mm
12:17 PM 57.0°F13.9°C 48.4°F9.1°C 73% 4.9 mph WNW7.9 kmh WNW 8.1 mph13.0 kmh 29.86 in1011.2 mb - 0.00 in0.0 mm 0.00 in0.0 mm
12:12 PM 57.0°F13.9°C 48.0°F8.9°C 72% 4.9 mph WSW7.9 kmh WSW 4.9 mph7.9 kmh 29.86 in1011.2 mb - 0.00 in0.0 mm 0.00 in0.0 mm
12:07 PM 57.0°F13.9°C 47.7°F8.7°C 71% 4.0 mph W6.4 kmh W 6.9 mph11.1 kmh 29.86 in1011.2 mb - 0.00 in0.0 mm 0.00 in0.0 mm
12:02 PM 57.2°F14.0°C 47.8°F8.8°C 71% 4.0 mph WSW6.4 kmh WSW 4.0 mph6.4 kmh 29.86 in1011.2 mb - 0.00 in0.0 mm 0.00 in0.0 mm
11:57 AM 57.2°F14.0°C 47.8°F8.8°C 71% 4.9 mph W7.9 kmh W 6.0 mph9.7 kmh 29.86 in1011.2 mb - 0.00 in0.0 mm 0.00 in0.0 mm
11:52 AM 57.2°F14.0°C 48.2°F9.0°C 72% 4.9 mph W7.9 kmh W 4.0 mph6.4 kmh 29.86 in1011.2 mb - 0.00 in0.0 mm 0.00 in0.0 mm
11:47 AM 57.4°F14.1°C 48.4°F9.1°C 72% 4.9 mph WSW7.9 kmh WSW 4.0 mph6.4 kmh 29.86 in1011.2 mb - 0.00 in0.0 mm 0.00 in0.0 mm
11:42 AM 57.7°F14.3°C 48.0°F8.9°C 70% 4.9 mph WNW7.9 kmh WNW 8.1 mph13.0 kmh 29.86 in1011.2 mb - 0.00 in0.0 mm 0.00 in0.0 mm
11:37 AM 57.9°F14.4°C 47.5°F8.6°C 68% 4.9 mph W7.9 kmh W 2.0 mph3.2 kmh 29.86 in1011.2 mb - 0.00 in0.0 mm 0.00 in0.0 mm
11:32 AM 57.9°F14.4°C 46.9°F8.3°C 67% 4.9 mph WSW7.9 kmh WSW 6.0 mph9.7 kmh 29.86 in1011.2 mb - 0.00 in0.0 mm 0.00 in0.0 mm
11:27 AM 57.9°F14.4°C 47.5°F8.6°C 68% 4.0 mph W6.4 kmh W 8.1 mph13.0 kmh 29.86 in1011.2 mb - 0.00 in0.0 mm 0.00 in0.0 mm
11:22 AM 57.6°F14.2°C 47.1°F8.4°C 68% 4.0 mph WNW6.4 kmh WNW 2.9 mph4.7 kmh 29.86 in1011.2 mb - 0.00 in0.0 mm 0.00 in0.0 mm
11:17 AM 57.4°F14.1°C 47.3°F8.5°C 69% 2.9 mph WSW4.7 kmh WSW 2.9 mph4.7 kmh 29.86 in1011.2 mb - 0.00 in0.0 mm 0.00 in0.0 mm
11:12 AM 57.0°F13.9°C 46.9°F8.3°C 69% 4.0 mph SW6.4 kmh SW 2.9 mph4.7 kmh 29.86 in1011.2 mb - 0.00 in0.0 mm 0.00 in0.0 mm
11:07 AM 56.7°F13.7°C 46.9°F8.3°C 70% 4.9 mph WSW7.9 kmh WSW 4.0 mph6.4 kmh 29.86 in1011.2 mb - 0.00 in0.0 mm 0.00 in0.0 mm
11:02 AM 56.3°F13.5°C 46.6°F8.1°C 70% 4.0 mph WNW6.4 kmh WNW 2.9 mph4.7 kmh 29.87 in1011.5 mb - 0.00 in0.0 mm 0.00 in0.0 mm
10:57 AM 55.9°F13.3°C 46.8°F8.2°C 71% 4.0 mph W6.4 kmh W 2.0 mph3.2 kmh 29.86 in1011.2 mb - 0.00 in0.0 mm 0.00 in0.0 mm
10:52 AM 55.6°F13.1°C 46.4°F8.0°C 71% 4.0 mph WSW6.4 kmh WSW 2.9 mph4.7 kmh 29.86 in1011.2 mb - 0.00 in0.0 mm 0.00 in0.0 mm
10:47 AM 55.4°F13.0°C 46.2°F7.9°C 71% 2.9 mph W4.7 kmh W 2.9 mph4.7 kmh 29.87 in1011.5 mb - 0.00 in0.0 mm 0.00 in0.0 mm
10:42 AM 55.2°F12.9°C 46.4°F8.0°C 72% 2.9 mph WSW4.7 kmh WSW 4.9 mph7.9 kmh 29.86 in1011.2 mb - 0.00 in0.0 mm 0.00 in0.0 mm
10:37 AM 55.2°F12.9°C 46.4°F8.0°C 72% 4.0 mph WSW6.4 kmh WSW 2.0 mph3.2 kmh 29.86 in1011.2 mb - 0.00 in0.0 mm 0.00 in0.0 mm
10:32 AM 55.2°F12.9°C 46.4°F8.0°C 72% 4.0 mph WSW6.4 kmh WSW 4.0 mph6.4 kmh 29.86 in1011.2 mb - 0.00 in0.0 mm 0.00 in0.0 mm
10:27 AM 55.0°F12.8°C 46.2°F7.9°C 72% 4.0 mph W6.4 kmh W 4.0 mph6.4 kmh 29.86 in1011.2 mb - 0.00 in0.0 mm 0.00 in0.0 mm
10:22 AM 55.2°F12.9°C 46.4°F8.0°C 72% 4.0 mph WSW6.4 kmh WSW 2.9 mph4.7 kmh 29.86 in1011.2 mb - 0.00 in0.0 mm 0.00 in0.0 mm
10:17 AM 55.2°F12.9°C 46.0°F7.8°C 71% 4.9 mph SW7.9 kmh SW 4.0 mph6.4 kmh 29.86 in1011.2 mb - 0.00 in0.0 mm 0.00 in0.0 mm
10:12 AM 55.4°F13.0°C 46.2°F7.9°C 71% 6.0 mph WSW9.7 kmh WSW 4.0 mph6.4 kmh 29.86 in1011.2 mb - 0.00 in0.0 mm 0.00 in0.0 mm
10:07 AM 55.2°F12.9°C 46.0°F7.8°C 71% 6.0 mph W9.7 kmh W 6.9 mph11.1 kmh 29.86 in1011.2 mb - 0.00 in0.0 mm 0.00 in0.0 mm
10:02 AM 55.2°F12.9°C 46.0°F7.8°C 71% 6.0 mph WSW9.7 kmh WSW 6.9 mph11.1 kmh 29.86 in1011.2 mb - 0.00 in0.0 mm 0.00 in0.0 mm
09:57 AM 55.2°F12.9°C 46.0°F7.8°C 71% 6.9 mph WSW11.1 kmh WSW 6.0 mph9.7 kmh 29.86 in1011.2 mb - 0.00 in0.0 mm 0.00 in0.0 mm
09:52 AM 55.0°F12.8°C 45.9°F7.7°C 71% 8.1 mph WSW13.0 kmh WSW 4.9 mph7.9 kmh 29.85 in1010.8 mb - 0.00 in0.0 mm 0.00 in0.0 mm
09:47 AM 55.0°F12.8°C 45.5°F7.5°C 70% 8.9 mph SW14.3 kmh SW 10.1 mph16.3 kmh 29.85 in1010.8 mb - 0.00 in0.0 mm 0.00 in0.0 mm
09:42 AM 54.9°F12.7°C 45.7°F7.6°C 71% 8.1 mph SSW13.0 kmh SSW 10.1 mph16.3 kmh 29.85 in1010.8 mb - 0.00 in0.0 mm 0.00 in0.0 mm
09:37 AM 54.7°F12.6°C 45.9°F7.7°C 72% 6.9 mph SSW11.1 kmh SSW 6.0 mph9.7 kmh 29.85 in1010.8 mb - 0.00 in0.0 mm 0.00 in0.0 mm
09:32 AM 54.5°F12.5°C 45.7°F7.6°C 72% 8.1 mph WSW13.0 kmh WSW 6.9 mph11.1 kmh 29.85 in1010.8 mb - 0.00 in0.0 mm 0.00 in0.0 mm
09:27 AM 54.1°F12.3°C 45.3°F7.4°C 72% 8.1 mph W13.0 kmh W 8.1 mph13.0 kmh 29.85 in1010.8 mb - 0.00 in0.0 mm 0.00 in0.0 mm
09:22 AM 53.8°F12.1°C 45.3°F7.4°C 73% 8.1 mph WNW13.0 kmh WNW 6.9 mph11.1 kmh 29.85 in1010.8 mb - 0.00 in0.0 mm 0.00 in0.0 mm
09:17 AM 53.6°F12.0°C 45.1°F7.3°C 73% 8.1 mph SW13.0 kmh SW 6.0 mph9.7 kmh 29.85 in1010.8 mb - 0.00 in0.0 mm 0.00 in0.0 mm
09:12 AM 53.4°F11.9°C 45.0°F7.2°C 73% 8.1 mph W13.0 kmh W 10.1 mph16.3 kmh 29.86 in1011.2 mb - 0.00 in0.0 mm 0.00 in0.0 mm
09:07 AM 53.4°F11.9°C 45.0°F7.2°C 73% 8.1 mph W13.0 kmh W 8.1 mph13.0 kmh 29.85 in1010.8 mb - 0.00 in0.0 mm 0.00 in0.0 mm
09:02 AM 53.2°F11.8°C 45.1°F7.3°C 74% 6.9 mph WNW11.1 kmh WNW 12.1 mph19.5 kmh 29.85 in1010.8 mb - 0.00 in0.0 mm 0.00 in0.0 mm
08:57 AM 53.2°F11.8°C 45.1°F7.3°C 74% 6.9 mph WSW11.1 kmh WSW 6.9 mph11.1 kmh 29.85 in1010.8 mb - 0.00 in0.0 mm 0.00 in0.0 mm
08:52 AM 53.2°F11.8°C 45.1°F7.3°C 74% 6.9 mph NW11.1 kmh NW 8.9 mph14.3 kmh 29.85 in1010.8 mb - 0.00 in0.0 mm 0.00 in0.0 mm
08:47 AM 53.2°F11.8°C 45.1°F7.3°C 74% 6.9 mph SSW11.1 kmh SSW 6.9 mph11.1 kmh 29.85 in1010.8 mb - 0.00 in0.0 mm 0.00 in0.0 mm
08:42 AM 53.2°F11.8°C 45.1°F7.3°C 74% 8.1 mph W13.0 kmh W 6.9 mph11.1 kmh 29.85 in1010.8 mb - 0.00 in0.0 mm 0.00 in0.0 mm
08:37 AM 53.1°F11.7°C 45.0°F7.2°C 74% 6.9 mph WSW11.1 kmh WSW 6.9 mph11.1 kmh 29.85 in1010.8 mb - 0.00 in0.0 mm 0.00 in0.0 mm
08:32 AM 53.1°F11.7°C 45.0°F7.2°C 74% 6.9 mph W11.1 kmh W 6.0 mph9.7 kmh 29.85 in1010.8 mb - 0.00 in0.0 mm 0.00 in0.0 mm
08:27 AM 52.9°F11.6°C 45.1°F7.3°C 75% 8.1 mph SW13.0 kmh SW 8.1 mph13.0 kmh 29.85 in1010.8 mb - 0.00 in0.0 mm 0.00 in0.0 mm
08:22 AM 52.9°F11.6°C 45.1°F7.3°C 75% 8.1 mph WSW13.0 kmh WSW 8.1 mph13.0 kmh 29.85 in1010.8 mb - 0.00 in0.0 mm 0.00 in0.0 mm
08:17 AM 52.5°F11.4°C 45.1°F7.3°C 76% 8.1 mph SW13.0 kmh SW 6.9 mph11.1 kmh 29.85 in1010.8 mb - 0.00 in0.0 mm 0.00 in0.0 mm
08:12 AM 52.2°F11.2°C 45.1°F7.3°C 77% 6.9 mph SW11.1 kmh SW 8.1 mph13.0 kmh 29.85 in1010.8 mb - 0.00 in0.0 mm 0.00 in0.0 mm
08:07 AM 51.4°F10.8°C 44.8°F7.1°C 78% 6.0 mph WSW9.7 kmh WSW 8.1 mph13.0 kmh 29.84 in1010.5 mb - 0.00 in0.0 mm 0.00 in0.0 mm
08:02 AM 50.9°F10.5°C 44.6°F7.0°C 79% 6.0 mph WNW9.7 kmh WNW 4.9 mph7.9 kmh 29.85 in1010.8 mb - 0.00 in0.0 mm 0.00 in0.0 mm
07:57 AM 50.4°F10.2°C 44.4°F6.9°C 80% 4.9 mph W7.9 kmh W 4.0 mph6.4 kmh 29.84 in1010.5 mb - 0.00 in0.0 mm 0.00 in0.0 mm
07:52 AM 50.2°F10.1°C 44.2°F6.8°C 80% 4.9 mph W7.9 kmh W 4.0 mph6.4 kmh 29.85 in1010.8 mb - 0.00 in0.0 mm 0.00 in0.0 mm
07:47 AM 50.0°F10.0°C 44.4°F6.9°C 81% 4.9 mph SW7.9 kmh SW 4.9 mph7.9 kmh 29.85 in1010.8 mb - 0.00 in0.0 mm 0.00 in0.0 mm
07:42 AM 49.8°F9.9°C 44.2°F6.8°C 81% 4.0 mph SW6.4 kmh SW 4.9 mph7.9 kmh 29.84 in1010.5 mb - 0.00 in0.0 mm 0.00 in0.0 mm
07:37 AM 49.8°F9.9°C 44.2°F6.8°C 81% 4.0 mph W6.4 kmh W 6.9 mph11.1 kmh 29.84 in1010.5 mb - 0.00 in0.0 mm 0.00 in0.0 mm
07:32 AM 49.8°F9.9°C 44.2°F6.8°C 81% 4.9 mph SW7.9 kmh SW 4.0 mph6.4 kmh 29.84 in1010.5 mb - 0.00 in0.0 mm 0.00 in0.0 mm
07:27 AM 49.6°F9.8°C 44.1°F6.7°C 81% 4.9 mph WSW7.9 kmh WSW 4.0 mph6.4 kmh 29.84 in1010.5 mb - 0.00 in0.0 mm 0.00 in0.0 mm
07:22 AM 49.5°F9.7°C 44.2°F6.8°C 82% 4.9 mph WSW7.9 kmh WSW 4.9 mph7.9 kmh 29.84 in1010.5 mb - 0.00 in0.0 mm 0.00 in0.0 mm
07:17 AM 49.5°F9.7°C 44.2°F6.8°C 82% 4.9 mph W7.9 kmh W 6.9 mph11.1 kmh 29.84 in1010.5 mb - 0.00 in0.0 mm 0.00 in0.0 mm
07:12 AM 49.3°F9.6°C 43.7°F6.5°C 81% 4.9 mph S7.9 kmh S 8.9 mph14.3 kmh 29.84 in1010.5 mb - 0.00 in0.0 mm 0.00 in0.0 mm
07:07 AM 49.5°F9.7°C 43.9°F6.6°C 81% 4.0 mph SW6.4 kmh SW 6.0 mph9.7 kmh 29.85 in1010.8 mb - 0.00 in0.0 mm 0.00 in0.0 mm
07:02 AM 49.6°F9.8°C 44.1°F6.7°C 81% 4.0 mph SSW6.4 kmh SSW 4.0 mph6.4 kmh 29.84 in1010.5 mb - 0.00 in0.0 mm 0.00 in0.0 mm
06:57 AM 50.0°F10.0°C 44.1°F6.7°C 80% 4.0 mph SSW6.4 kmh SSW 4.9 mph7.9 kmh 29.85 in1010.8 mb - 0.00 in0.0 mm 0.00 in0.0 mm
06:52 AM 50.2°F10.1°C 44.2°F6.8°C 80% 4.0 mph S6.4 kmh S 4.9 mph7.9 kmh 29.85 in1010.8 mb - 0.00 in0.0 mm 0.00 in0.0 mm
06:47 AM 50.2°F10.1°C 44.2°F6.8°C 80% 4.9 mph SSW7.9 kmh SSW 2.9 mph4.7 kmh 29.85 in1010.8 mb - 0.00 in0.0 mm 0.00 in0.0 mm
06:42 AM 50.2°F10.1°C 43.9°F6.6°C 79% 4.9 mph SW7.9 kmh SW 4.0 mph6.4 kmh 29.85 in1010.8 mb - 0.00 in0.0 mm 0.00 in0.0 mm
06:37 AM 50.5°F10.3°C 44.2°F6.8°C 79% 4.9 mph WSW7.9 kmh WSW 4.0 mph6.4 kmh 29.84 in1010.5 mb - 0.00 in0.0 mm 0.00 in0.0 mm
06:32 AM 50.5°F10.3°C 44.2°F6.8°C 79% 4.9 mph WSW7.9 kmh WSW 2.9 mph4.7 kmh 29.84 in1010.5 mb - 0.00 in0.0 mm 0.00 in0.0 mm
06:27 AM 50.4°F10.2°C 44.1°F6.7°C 79% 4.9 mph WSW7.9 kmh WSW 4.9 mph7.9 kmh 29.84 in1010.5 mb - 0.00 in0.0 mm 0.00 in0.0 mm
06:22 AM 50.2°F10.1°C 44.2°F6.8°C 80% 4.0 mph W6.4 kmh W 4.0 mph6.4 kmh 29.84 in1010.5 mb - 0.00 in0.0 mm 0.00 in0.0 mm
06:17 AM 50.0°F10.0°C 43.7°F6.5°C 79% 4.0 mph SW6.4 kmh SW 4.9 mph7.9 kmh 29.84 in1010.5 mb - 0.00 in0.0 mm 0.00 in0.0 mm
06:12 AM 50.2°F10.1°C 43.5°F6.4°C 78% 2.9 mph WNW4.7 kmh WNW 2.0 mph3.2 kmh 29.84 in1010.5 mb - 0.00 in0.0 mm 0.00 in0.0 mm
06:07 AM 50.7°F10.4°C 43.7°F6.5°C 77% 4.0 mph WNW6.4 kmh WNW 4.0 mph6.4 kmh 29.84 in1010.5 mb - 0.00 in0.0 mm 0.00 in0.0 mm
06:02 AM 51.3°F10.7°C 44.2°F6.8°C 77% 4.9 mph WSW7.9 kmh WSW 4.0 mph6.4 kmh 29.84 in1010.5 mb - 0.00 in0.0 mm 0.00 in0.0 mm
05:57 AM 51.6°F10.9°C 44.2°F6.8°C 76% 4.9 mph SW7.9 kmh SW 6.0 mph9.7 kmh 29.84 in1010.5 mb - 0.00 in0.0 mm 0.00 in0.0 mm
05:52 AM 52.0°F11.1°C 44.2°F6.8°C 75% 4.9 mph SW7.9 kmh SW 6.0 mph9.7 kmh 29.85 in1010.8 mb - 0.00 in0.0 mm 0.00 in0.0 mm
05:47 AM 52.2°F11.2°C 44.4°F6.9°C 75% 6.0 mph S9.7 kmh S 4.0 mph6.4 kmh 29.85 in1010.8 mb - 0.00 in0.0 mm 0.00 in0.0 mm
05:42 AM 52.5°F11.4°C 44.4°F6.9°C 74% 4.9 mph WSW7.9 kmh WSW 4.9 mph7.9 kmh 29.85 in1010.8 mb - 0.00 in0.0 mm 0.00 in0.0 mm
05:37 AM 52.7°F11.5°C 44.6°F7.0°C 74% 6.0 mph SW9.7 kmh SW 6.0 mph9.7 kmh 29.85 in1010.8 mb - 0.00 in0.0 mm 0.00 in0.0 mm
05:32 AM 52.9°F11.6°C 44.8°F7.1°C 74% 6.0 mph SW9.7 kmh SW 2.9 mph4.7 kmh 29.85 in1010.8 mb - 0.00 in0.0 mm 0.00 in0.0 mm
05:27 AM 52.9°F11.6°C 44.8°F7.1°C 74% 4.9 mph SW7.9 kmh SW 6.0 mph9.7 kmh 29.85 in1010.8 mb - 0.00 in0.0 mm 0.00 in0.0 mm
05:22 AM 52.9°F11.6°C 44.8°F7.1°C 74% 4.9 mph SW7.9 kmh SW 6.0 mph9.7 kmh 29.86 in1011.2 mb - 0.00 in0.0 mm 0.00 in0.0 mm
05:17 AM 52.7°F11.5°C 44.6°F7.0°C 74% 4.9 mph WSW7.9 kmh WSW 4.0 mph6.4 kmh 29.86 in1011.2 mb - 0.00 in0.0 mm 0.00 in0.0 mm
05:12 AM 52.3°F11.3°C 44.6°F7.0°C 75% 6.0 mph WSW9.7 kmh WSW 6.0 mph9.7 kmh 29.86 in1011.2 mb - 0.00 in0.0 mm 0.00 in0.0 mm
05:07 AM 51.8°F11.0°C 44.4°F6.9°C 76% 4.9 mph W7.9 kmh W 6.9 mph11.1 kmh 29.86 in1011.2 mb - 0.00 in0.0 mm 0.00 in0.0 mm
05:02 AM 51.4°F10.8°C 44.4°F6.9°C 77% 4.0 mph SW6.4 kmh SW 4.0 mph6.4 kmh 29.86 in1011.2 mb - 0.00 in0.0 mm 0.00 in0.0 mm
04:57 AM 51.3°F10.7°C 44.2°F6.8°C 77% 4.0 mph WSW6.4 kmh WSW 4.0 mph6.4 kmh 29.86 in1011.2 mb - 0.00 in0.0 mm 0.00 in0.0 mm
04:52 AM 51.3°F10.7°C 44.2°F6.8°C 77% 4.0 mph SW6.4 kmh SW 4.0 mph6.4 kmh 29.86 in1011.2 mb - 0.00 in0.0 mm 0.00 in0.0 mm
04:47 AM 51.3°F10.7°C 44.2°F6.8°C 77% 4.0 mph WSW6.4 kmh WSW 2.9 mph4.7 kmh 29.86 in1011.2 mb - 0.00 in0.0 mm 0.00 in0.0 mm
04:42 AM 51.4°F10.8°C 44.1°F6.7°C 76% 4.0 mph W6.4 kmh W 2.9 mph4.7 kmh 29.86 in1011.2 mb - 0.00 in0.0 mm 0.00 in0.0 mm
04:37 AM 51.3°F10.7°C 44.2°F6.8°C 77% 4.0 mph W6.4 kmh W 4.0 mph6.4 kmh 29.86 in1011.2 mb - 0.00 in0.0 mm 0.00 in0.0 mm
04:32 AM 51.3°F10.7°C 44.2°F6.8°C 77% 4.0 mph WSW6.4 kmh WSW 2.9 mph4.7 kmh 29.86 in1011.2 mb - 0.00 in0.0 mm 0.00 in0.0 mm
04:27 AM 51.6°F10.9°C 44.2°F6.8°C 76% 2.9 mph WSW4.7 kmh WSW 2.9 mph4.7 kmh 29.87 in1011.5 mb - 0.00 in0.0 mm 0.00 in0.0 mm
04:22 AM 52.0°F11.1°C 44.2°F6.8°C 75% 4.0 mph WSW6.4 kmh WSW 4.0 mph6.4 kmh 29.86 in1011.2 mb - 0.00 in0.0 mm 0.00 in0.0 mm
04:17 AM 52.3°F11.3°C 44.2°F6.8°C 74% 4.0 mph W6.4 kmh W 2.9 mph4.7 kmh 29.86 in1011.2 mb - 0.00 in0.0 mm 0.00 in0.0 mm
04:12 AM 52.7°F11.5°C 44.6°F7.0°C 74% 4.0 mph SW6.4 kmh SW 6.9 mph11.1 kmh 29.86 in1011.2 mb - 0.00 in0.0 mm 0.00 in0.0 mm
04:07 AM 53.1°F11.7°C 44.6°F7.0°C 73% 4.0 mph WSW6.4 kmh WSW 2.9 mph4.7 kmh 29.87 in1011.5 mb - 0.00 in0.0 mm 0.00 in0.0 mm
04:02 AM 53.1°F11.7°C 44.6°F7.0°C 73% 4.0 mph WNW6.4 kmh WNW 2.0 mph3.2 kmh 29.87 in1011.5 mb - 0.00 in0.0 mm 0.00 in0.0 mm
03:57 AM 53.2°F11.8°C 44.8°F7.1°C 73% 4.9 mph WSW7.9 kmh WSW 4.0 mph6.4 kmh 29.87 in1011.5 mb - 0.00 in0.0 mm 0.00 in0.0 mm
03:52 AM 53.4°F11.9°C 44.6°F7.0°C 72% 4.9 mph WSW7.9 kmh WSW 2.9 mph4.7 kmh 29.87 in1011.5 mb - 0.00 in0.0 mm 0.00 in0.0 mm
03:47 AM 53.6°F12.0°C 44.8°F7.1°C 72% 4.9 mph WSW7.9 kmh WSW 4.0 mph6.4 kmh 29.87 in1011.5 mb - 0.00 in0.0 mm 0.00 in0.0 mm
03:42 AM 53.6°F12.0°C 45.1°F7.3°C 73% 4.9 mph SW7.9 kmh SW 6.0 mph9.7 kmh 29.87 in1011.5 mb - 0.00 in0.0 mm 0.00 in0.0 mm
03:37 AM 53.2°F11.8°C 44.8°F7.1°C 73% 4.0 mph WSW6.4 kmh WSW 4.0 mph6.4 kmh 29.88 in1011.9 mb - 0.00 in0.0 mm 0.00 in0.0 mm
03:32 AM 52.9°F11.6°C 44.8°F7.1°C 74% 2.9 mph WSW4.7 kmh WSW 6.0 mph9.7 kmh 29.88 in1011.9 mb - 0.00 in0.0 mm 0.00 in0.0 mm
03:27 AM 53.1°F11.7°C 45.0°F7.2°C 74% 4.0 mph SW6.4 kmh SW 6.0 mph9.7 kmh 29.88 in1011.9 mb - 0.00 in0.0 mm 0.00 in0.0 mm
03:22 AM 53.2°F11.8°C 45.1°F7.3°C 74% 4.0 mph SW6.4 kmh SW 4.9 mph7.9 kmh 29.88 in1011.9 mb - 0.00 in0.0 mm 0.00 in0.0 mm
03:17 AM 53.2°F11.8°C 45.1°F7.3°C 74% 4.0 mph SW6.4 kmh SW 4.0 mph6.4 kmh 29.88 in1011.9 mb - 0.00 in0.0 mm 0.00 in0.0 mm
03:12 AM 53.2°F11.8°C 45.1°F7.3°C 74% 4.0 mph SW6.4 kmh SW 4.9 mph7.9 kmh 29.88 in1011.9 mb - 0.00 in0.0 mm 0.00 in0.0 mm
03:07 AM 53.1°F11.7°C 45.0°F7.2°C 74% 4.0 mph SW6.4 kmh SW 4.9 mph7.9 kmh 29.88 in1011.9 mb - 0.00 in0.0 mm 0.00 in0.0 mm
03:02 AM 53.1°F11.7°C 45.0°F7.2°C 74% 4.9 mph SW7.9 kmh SW 2.0 mph3.2 kmh 29.88 in1011.9 mb - 0.00 in0.0 mm 0.00 in0.0 mm
02:57 AM 52.7°F11.5°C 45.0°F7.2°C 75% 4.0 mph WSW6.4 kmh WSW 6.9 mph11.1 kmh 29.89 in1012.2 mb - 0.00 in0.0 mm 0.00 in0.0 mm
02:52 AM 52.5°F11.4°C 44.8°F7.1°C 75% 2.9 mph SW4.7 kmh SW 4.0 mph6.4 kmh 29.89 in1012.2 mb - 0.00 in0.0 mm 0.00 in0.0 mm
02:47 AM 52.5°F11.4°C 44.8°F7.1°C 75% 2.9 mph SW4.7 kmh SW 2.9 mph4.7 kmh 29.89 in1012.2 mb - 0.00 in0.0 mm 0.00 in0.0 mm
02:42 AM 52.7°F11.5°C 45.0°F7.2°C 75% 4.0 mph W6.4 kmh W 2.0 mph3.2 kmh 29.89 in1012.2 mb - 0.00 in0.0 mm 0.00 in0.0 mm
02:37 AM 53.1°F11.7°C 45.0°F7.2°C 74% 4.0 mph WSW6.4 kmh WSW 2.9 mph4.7 kmh 29.89 in1012.2 mb - 0.00 in0.0 mm 0.00 in0.0 mm
02:32 AM 53.1°F11.7°C 45.0°F7.2°C 74% 4.0 mph W6.4 kmh W 4.0 mph6.4 kmh 29.89 in1012.2 mb - 0.00 in0.0 mm 0.00 in0.0 mm
02:27 AM 53.1°F11.7°C 45.0°F7.2°C 74% 4.9 mph SW7.9 kmh SW 4.0 mph6.4 kmh 29.89 in1012.2 mb - 0.00 in0.0 mm 0.00 in0.0 mm
02:22 AM 52.9°F11.6°C 45.1°F7.3°C 75% 4.9 mph WSW7.9 kmh WSW 4.0 mph6.4 kmh 29.89 in1012.2 mb - 0.00 in0.0 mm 0.00 in0.0 mm
02:17 AM 52.5°F11.4°C 44.8°F7.1°C 75% 4.0 mph WSW6.4 kmh WSW 4.0 mph6.4 kmh 29.90 in1012.5 mb - 0.00 in0.0 mm 0.00 in0.0 mm
02:12 AM 52.3°F11.3°C 44.6°F7.0°C 75% 4.0 mph WSW6.4 kmh WSW 4.0 mph6.4 kmh 29.90 in1012.5 mb - 0.00 in0.0 mm 0.00 in0.0 mm
02:07 AM 52.3°F11.3°C 44.6°F7.0°C 75% 4.0 mph SW6.4 kmh SW 2.9 mph4.7 kmh 29.89 in1012.2 mb - 0.00 in0.0 mm 0.00 in0.0 mm
02:02 AM 52.2°F11.2°C 44.4°F6.9°C 75% 4.0 mph W6.4 kmh W 2.9 mph4.7 kmh 29.89 in1012.2 mb - 0.00 in0.0 mm 0.00 in0.0 mm
01:57 AM 52.2°F11.2°C 44.4°F6.9°C 75% 4.0 mph S6.4 kmh S 6.0 mph9.7 kmh 29.89 in1012.2 mb - 0.00 in0.0 mm 0.00 in0.0 mm
01:52 AM 52.2°F11.2°C 44.4°F6.9°C 75% 4.0 mph SW6.4 kmh SW 4.9 mph7.9 kmh 29.90 in1012.5 mb - 0.00 in0.0 mm 0.00 in0.0 mm
01:47 AM 52.0°F11.1°C 44.2°F6.8°C 75% 4.0 mph SSW6.4 kmh SSW 6.0 mph9.7 kmh 29.90 in1012.5 mb - 0.00 in0.0 mm 0.00 in0.0 mm
01:42 AM 52.0°F11.1°C 44.2°F6.8°C 75% 2.9 mph SW4.7 kmh SW 4.0 mph6.4 kmh 29.89 in1012.2 mb - 0.00 in0.0 mm 0.00 in0.0 mm
01:37 AM 52.0°F11.1°C 44.2°F6.8°C 75% 2.9 mph WSW4.7 kmh WSW 2.9 mph4.7 kmh 29.89 in1012.2 mb - 0.00 in0.0 mm 0.00 in0.0 mm
01:32 AM 52.2°F11.2°C 44.4°F6.9°C 75% 4.0 mph W6.4 kmh W 2.0 mph3.2 kmh 29.89 in1012.2 mb - 0.00 in0.0 mm 0.00 in0.0 mm
01:27 AM 52.2°F11.2°C 44.4°F6.9°C 75% 4.0 mph SW6.4 kmh SW 2.9 mph4.7 kmh 29.89 in1012.2 mb - 0.00 in0.0 mm 0.00 in0.0 mm
01:22 AM 52.3°F11.3°C 44.6°F7.0°C 75% 4.0 mph SW6.4 kmh SW 4.0 mph6.4 kmh 29.90 in1012.5 mb - 0.00 in0.0 mm 0.00 in0.0 mm
01:17 AM 52.3°F11.3°C 44.6°F7.0°C 75% 4.0 mph W6.4 kmh W 2.9 mph4.7 kmh 29.89 in1012.2 mb - 0.00 in0.0 mm 0.00 in0.0 mm
01:12 AM 52.3°F11.3°C 44.6°F7.0°C 75% 4.0 mph WSW6.4 kmh WSW 2.0 mph3.2 kmh 29.90 in1012.5 mb - 0.00 in0.0 mm 0.00 in0.0 mm
01:07 AM 52.3°F11.3°C 44.6°F7.0°C 75% 4.0 mph NW6.4 kmh NW 2.0 mph3.2 kmh 29.90 in1012.5 mb - 0.00 in0.0 mm 0.00 in0.0 mm
01:02 AM 52.2°F11.2°C 44.4°F6.9°C 75% 4.0 mph WSW6.4 kmh WSW 4.0 mph6.4 kmh 29.90 in1012.5 mb - 0.00 in0.0 mm 0.00 in0.0 mm
12:57 AM 52.0°F11.1°C 44.6°F7.0°C 76% 2.9 mph W4.7 kmh W 6.0 mph9.7 kmh 29.90 in1012.5 mb - 0.00 in0.0 mm 0.00 in0.0 mm
12:52 AM 51.8°F11.0°C 44.4°F6.9°C 76% 2.9 mph SW4.7 kmh SW 4.0 mph6.4 kmh 29.90 in1012.5 mb - 0.00 in0.0 mm 0.00 in0.0 mm
12:47 AM 52.0°F11.1°C 44.6°F7.0°C 76% 2.9 mph W4.7 kmh W 2.0 mph3.2 kmh 29.90 in1012.5 mb - 0.00 in0.0 mm 0.00 in0.0 mm
12:42 AM 52.0°F11.1°C 44.6°F7.0°C 76% 2.9 mph W4.7 kmh W 2.9 mph4.7 kmh 29.90 in1012.5 mb - 0.00 in0.0 mm 0.00 in0.0 mm
12:37 AM 52.0°F11.1°C 44.2°F6.8°C 75% 2.9 mph WNW4.7 kmh WNW 2.0 mph3.2 kmh 29.90 in1012.5 mb - 0.00 in0.0 mm 0.00 in0.0 mm
12:32 AM 52.3°F11.3°C 44.2°F6.8°C 74% 2.9 mph W4.7 kmh W 2.0 mph3.2 kmh 29.91 in1012.9 mb - 0.00 in0.0 mm 0.00 in0.0 mm
12:27 AM 52.9°F11.6°C 44.8°F7.1°C 74% 4.0 mph W6.4 kmh W 4.0 mph6.4 kmh 29.91 in1012.9 mb - 0.00 in0.0 mm 0.00 in0.0 mm
12:22 AM 53.2°F11.8°C 44.8°F7.1°C 73% 4.0 mph SW6.4 kmh SW 6.0 mph9.7 kmh 29.90 in1012.5 mb - 0.00 in0.0 mm 0.00 in0.0 mm
12:17 AM 53.2°F11.8°C 44.8°F7.1°C 73% 4.0 mph WSW6.4 kmh WSW 4.0 mph6.4 kmh 29.90 in1012.5 mb - 0.00 in0.0 mm 0.00 in0.0 mm
12:12 AM 53.4°F11.9°C 45.0°F7.2°C 73% 4.0 mph SW6.4 kmh SW 4.0 mph6.4 kmh 29.90 in1012.5 mb - 0.00 in0.0 mm 0.00 in0.0 mm
12:07 AM 53.6°F12.0°C 44.8°F7.1°C 72% 4.0 mph W6.4 kmh W 4.0 mph6.4 kmh 29.90 in1012.5 mb - 0.00 in0.0 mm 0.00 in0.0 mm
12:02 AM 53.8°F12.1°C 45.0°F7.2°C 72% 4.0 mph SW6.4 kmh SW 4.0 mph6.4 kmh 29.90 in1012.5 mb - 0.00 in0.0 mm 0.01 in0.3 mm